Time;durP1;ratioP1;P1;durP2;ratioP2;P2;SDS_P1;SDS_P2;PMS_P1;PMS_P2;Temp;Humidity;BMP_temperature;BMP_pressure;BME280_temperature;BME280_humidity;BME280_pressure;Samples;Min_cycle;Max_cycle;Signal;HPM_P1;HPM_P2
2023/02/15 00:01:33;;;;;;;37.13;21.07;;;;;;;0.06;92.43;101782.03;5050258;28;20047;-68
2023/02/15 00:03:59;;;;;;;36.87;19.80;;;;;;;0.05;93.16;101823.41;5050660;28;20074;-65
2023/02/15 00:06:25;;;;;;;41.50;22.73;;;;;;;0.02;94.51;101839.97;5049158;28;20033;-66
2023/02/15 00:08:51;;;;;;;35.40;20.77;;;;;;;0.11;94.83;101848.50;5050023;28;20053;-69
2023/02/15 00:11:39;;;;;;;41.90;23.07;;;;;;;0.15;94.65;101851.53;5049641;28;20461;-65
2023/02/15 00:14:12;;;;;;;40.87;23.90;;;;;;;-0.39;96.34;101823.19;5040572;28;20469;-67
2023/02/15 00:16:39;;;;;;;36.80;22.70;;;;;;;-0.70;96.85;101801.41;5050644;28;20025;-66
2023/02/15 00:19:05;;;;;;;40.50;22.80;;;;;;;-0.50;97.31;101818.66;5056609;28;20041;-69
2023/02/15 00:21:31;;;;;;;35.67;20.47;;;;;;;-0.28;97.01;101849.69;5042898;28;20195;-69
2023/02/15 00:23:58;;;;;;;39.93;21.97;;;;;;;-0.25;98.11;101856.72;5041117;28;20379;-68
2023/02/15 00:26:24;;;;;;;41.03;22.27;;;;;;;-0.15;98.18;101843.31;5049595;28;20017;-70
2023/02/15 00:28:50;;;;;;;43.47;22.73;;;;;;;-0.05;97.95;101848.59;5049471;28;20025;-67
2023/02/15 00:31:16;;;;;;;37.97;21.87;;;;;;;-0.05;97.79;101840.97;5049030;28;20024;-68
2023/02/15 00:33:41;;;;;;;41.67;22.83;;;;;;;-0.34;97.94;101799.22;5049766;28;20061;-68
2023/02/15 00:36:08;;;;;;;39.67;22.90;;;;;;;0.06;97.98;101839.53;5049547;28;20032;-73
2023/02/15 00:38:34;;;;;;;43.97;24.23;;;;;;;0.06;97.00;101820.09;5049549;28;20526;-67
2023/02/15 00:41:02;;;;;;;39.20;24.13;;;;;;;0.22;96.13;101834.38;5049487;28;20025;-69
2023/02/15 00:43:29;;;;;;;45.57;25.27;;;;;;;0.28;95.98;101829.91;5049729;28;20082;-70
2023/02/15 00:45:54;;;;;;;46.80;25.77;;;;;;;0.30;95.78;101818.25;4997420;28;20059;-69
2023/02/15 00:48:20;;;;;;;45.60;26.20;;;;;;;0.47;94.68;101831.00;5049516;28;20779;-69
2023/02/15 00:50:51;;;;;;;44.47;25.40;;;;;;;0.49;94.09;101833.69;5049468;28;20028;-68
2023/02/15 00:53:17;;;;;;;46.07;25.37;;;;;;;0.52;94.49;101825.47;5049858;28;20478;-66
2023/02/15 00:55:43;;;;;;;38.10;22.50;;;;;;;0.43;93.72;101797.50;5049509;28;20056;-69
2023/02/15 00:58:10;;;;;;;40.40;22.80;;;;;;;0.70;92.18;101811.13;5048321;28;20494;-68
2023/02/15 01:00:36;;;;;;;39.43;21.00;;;;;;;0.38;92.52;101764.00;5048703;28;20035;-70
2023/02/15 01:03:02;;;;;;;36.93;21.97;;;;;;;0.74;93.22;101823.41;5049393;28;20029;-69
2023/02/15 01:05:29;;;;;;;35.27;20.83;;;;;;;0.67;92.32;101816.81;5049266;28;20125;-69
2023/02/15 01:07:55;;;;;;;37.10;22.33;;;;;;;0.69;92.59;101819.53;5052214;28;20025;-70
2023/02/15 01:10:21;;;;;;;38.00;21.90;;;;;;;0.72;93.25;101817.25;5052095;28;20083;-65
2023/02/15 01:12:46;;;;;;;38.27;22.90;;;;;;;0.61;93.42;101828.91;5052525;28;20029;-70
2023/02/15 01:15:12;;;;;;;34.27;20.47;;;;;;;0.45;93.70;101807.06;5052155;28;20441;-70
2023/02/15 01:17:37;;;;;;;40.70;22.53;;;;;;;0.55;93.47;101824.13;5052656;28;20524;-70
2023/02/15 01:20:04;;;;;;;38.33;21.63;;;;;;;0.59;93.28;101825.34;5052154;28;20021;-69
2023/02/15 01:22:29;;;;;;;36.70;22.17;;;;;;;0.48;93.08;101817.53;5016665;28;20041;-69
2023/02/15 01:24:54;;;;;;;39.60;21.53;;;;;;;0.48;92.95;101811.56;5052715;28;20047;-70
2023/02/15 01:27:20;;;;;;;34.63;20.43;;;;;;;0.23;93.03;101787.91;5052081;28;20017;-69
2023/02/15 01:29:47;;;;;;;33.67;19.37;;;;;;;0.07;94.18;101829.53;5034054;28;20148;-67
2023/02/15 01:32:12;;;;;;;37.17;21.53;;;;;;;-0.06;95.49;101823.97;5045093;28;20032;-69
2023/02/15 01:34:37;;;;;;;31.87;18.73;;;;;;;-0.06;95.55;101818.91;5035401;28;20033;-69
2023/02/15 01:37:03;;;;;;;33.93;20.23;;;;;;;-0.09;96.28;101799.16;5035674;28;20031;-68
2023/02/15 01:39:30;;;;;;;32.60;19.10;;;;;;;0.24;95.71;101825.28;5036094;28;20035;-68
2023/02/15 01:41:55;;;;;;;32.33;20.23;;;;;;;0.39;95.33;101828.44;5052648;28;20072;-66
2023/02/15 01:44:48;;;;;;;34.37;20.13;;;;;;;0.44;95.22;101828.13;5051568;28;20115;-68
2023/02/15 01:47:22;;;;;;;36.37;21.07;;;;;;;0.42;94.88;101804.22;5052469;28;20021;-69
2023/02/15 01:50:06;;;;;;;32.87;20.67;;;;;;;-0.22;95.42;101708.19;5052575;28;20020;-69
2023/02/15 01:52:36;;;;;;;38.97;21.23;;;;;;;0.35;95.53;101816.16;5051623;28;20412;-69
2023/02/15 01:55:02;;;;;;;33.57;19.40;;;;;;;0.36;95.99;101821.38;5052234;28;20040;-69
2023/02/15 01:57:28;;;;;;;30.27;18.27;;;;;;;0.41;95.75;101815.16;5000488;28;20449;-69
2023/02/15 01:59:58;;;;;;;31.53;18.57;;;;;;;0.42;95.26;101822.00;5052200;28;20040;-69
2023/02/15 02:02:24;;;;;;;32.67;18.53;;;;;;;0.37;94.87;101828.25;5052153;28;20120;-69
2023/02/15 02:04:55;;;;;;;35.57;19.63;;;;;;;0.34;95.85;101827.97;5052272;28;20378;-69
2023/02/15 02:07:26;;;;;;;33.13;18.47;;;;;;;0.31;95.81;101823.50;5051960;28;20036;-69
2023/02/15 02:09:52;;;;;;;34.53;19.80;;;;;;;0.27;96.10;101830.63;5051847;28;20084;-68
2023/02/15 02:12:19;;;;;;;32.63;18.87;;;;;;;0.36;96.36;101829.00;5051644;28;20482;-69
2023/02/15 02:14:48;;;;;;;35.30;19.53;;;;;;;0.51;95.71;101828.75;5051701;28;20429;-69
2023/02/15 02:17:42;;;;;;;29.73;18.92;;;;;;;0.53;95.41;101830.69;5048855;28;20022;-68
2023/02/15 02:20:26;;;;;;;34.47;19.40;;;;;;;0.49;95.20;101826.06;5035810;28;20566;-68
2023/02/15 02:23:20;;;;;;;31.03;17.70;;;;;;;0.45;95.84;101831.59;5039921;28;20057;-70
2023/02/15 02:26:13;;;;;;;32.17;18.40;;;;;;;0.45;96.21;101829.94;4970308;28;20045;-70
2023/02/15 02:28:56;;;;;;;34.73;18.67;;;;;;;0.55;95.46;101828.28;4970296;28;20074;-66
2023/02/15 02:31:39;;;;;;;32.70;18.27;;;;;;;0.33;95.44;101767.75;4970411;28;20038;-67
2023/02/15 02:34:24;;;;;;;33.87;19.07;;;;;;;0.69;94.81;101820.41;4969462;28;20026;-67
2023/02/15 02:37:02;;;;;;;32.33;18.87;;;;;;;0.78;94.34;101813.66;4959977;28;20053;-70
2023/02/15 02:39:55;;;;;;;30.10;18.70;;;;;;;0.88;94.42;101819.66;4969677;28;20081;-65
2023/02/15 02:42:41;;;;;;;36.43;20.33;;;;;;;0.92;94.00;101821.75;4969884;28;20035;-64
2023/02/15 02:45:14;;;;;;;34.50;21.27;;;;;;;0.91;94.23;101804.69;4969775;28;20065;-66
2023/02/15 02:47:47;;;;;;;31.10;20.40;;;;;;;1.02;93.17;101814.25;4969988;28;20031;-68
2023/02/15 02:50:16;;;;;;;33.13;20.53;;;;;;;0.96;93.64;101817.13;4970142;28;20039;-68
2023/02/15 02:52:47;;;;;;;31.55;18.10;;;;;;;0.86;94.21;101821.16;4970332;28;20101;-70
2023/02/15 02:55:28;;;;;;;30.37;17.60;;;;;;;0.58;94.40;101773.59;4969501;28;20038;-68
2023/02/15 02:58:09;;;;;;;31.77;17.27;;;;;;;0.76;94.31;101820.25;4970194;28;20070;-70
2023/02/15 03:00:41;;;;;;;25.33;15.50;;;;;;;0.59;95.16;101825.34;4954750;28;20031;-64
2023/02/15 03:03:14;;;;;;;26.37;15.87;;;;;;;0.54;95.90;101829.94;5023573;28;20036;-68
2023/02/15 03:05:44;;;;;;;26.47;16.80;;;;;;;0.54;96.26;101827.41;5037813;28;20039;-66
2023/02/15 03:08:21;;;;;;;25.27;15.43;;;;;;;0.60;95.96;101830.56;5051190;28;20025;-64
2023/02/15 03:10:48;;;;;;;24.57;15.57;;;;;;;0.62;96.18;101824.00;5051223;28;20120;-64
2023/02/15 03:13:15;;;;;;;25.00;15.33;;;;;;;0.66;95.99;101829.38;5051161;28;20386;-66
2023/02/15 03:18:37;;;;;;;28.50;16.27;;;;;;;0.50;97.23;101829.50;5051012;28;20403;-67
2023/02/15 03:21:05;;;;;;;23.43;15.00;;;;;;;0.51;98.15;101837.25;5051150;28;20631;-66
2023/02/15 03:23:32;;;;;;;22.87;14.63;;;;;;;0.06;98.41;101769.31;5050706;28;20047;-65
2023/02/15 03:26:02;;;;;;;24.97;15.37;;;;;;;0.53;98.76;101833.22;5050386;28;20028;-71
2023/02/15 03:28:41;;;;;;;25.53;15.37;;;;;;;0.55;98.29;101833.38;5050870;28;20025;-68
2023/02/15 03:31:09;;;;;;;25.08;15.88;;;;;;;0.66;98.13;101837.91;5050213;28;20102;-65
2023/02/15 03:33:39;;;;;;;27.80;17.00;;;;;;;0.43;97.55;101778.06;5050307;28;20064;-69
2023/02/15 03:36:22;;;;;;;28.63;16.97;;;;;;;0.52;97.89;101792.44;5050427;28;20019;-67
2023/02/15 03:38:59;;;;;;;27.20;17.17;;;;;;;0.78;97.63;101834.00;5049898;28;20025;-65
2023/02/15 03:41:27;;;;;;;26.23;15.17;;;;;;;0.87;97.31;101835.66;5050206;28;20057;-67
2023/02/15 03:44:05;;;;;;;29.80;16.73;;;;;;;0.84;96.58;101841.34;5049403;28;20056;-67
2023/02/15 03:46:48;;;;;;;26.70;16.13;;;;;;;0.54;96.01;101801.13;5050472;28;20024;-64
2023/02/15 03:49:22;;;;;;;28.43;16.73;;;;;;;0.74;95.78;101843.75;5031550;28;20013;-67
2023/02/15 03:51:51;;;;;;;24.63;16.03;;;;;;;0.59;96.16;101807.53;5049713;28;20025;-71
2023/02/15 03:54:45;;;;;;;29.83;16.87;;;;;;;0.93;95.10;101839.69;5050142;28;20017;-68
2023/02/15 04:03:06;;;;;;;;;;;;;;;1.00;93.24;101869.19;5050232;28;20086;-68
2023/02/15 04:05:31;;;;;;;27.67;16.63;;;;;;;0.76;92.57;101820.25;5049748;28;19908;-68
2023/02/15 04:07:57;;;;;;;30.23;16.90;;;;;;;1.07;93.10;101866.50;5049971;28;20031;-67
2023/02/15 04:13:07;;;;;;;30.57;18.33;;;;;;;1.16;93.38;101881.75;5047472;28;20028;-67
2023/02/15 04:18:16;;;;;;;29.93;18.73;;;;;;;1.15;92.54;101872.31;5049220;28;20032;-66
2023/02/15 04:26:13;;;;;;;32.03;17.47;;;;;;;0.97;94.82;101899.38;5049718;28;20126;-67
2023/02/15 04:28:39;;;;;;;30.17;18.50;;;;;;;0.96;95.11;101905.25;5049891;28;20058;-66
2023/02/15 04:31:04;;;;;;;31.57;18.70;;;;;;;0.98;95.07;101913.88;5048911;28;20174;-67
2023/02/15 04:33:29;;;;;;;29.37;18.63;;;;;;;1.03;94.67;101905.06;5043027;28;20024;-68
2023/02/15 04:35:56;;;;;;;33.57;19.47;;;;;;;1.11;93.92;101914.34;5049945;28;20021;-68
2023/02/15 04:38:22;;;;;;;34.83;18.50;;;;;;;1.16;92.96;101904.66;5048945;28;20039;-66
2023/02/15 04:40:51;;;;;;;37.20;18.87;;;;;;;1.16;93.22;101921.53;5048105;28;20040;-67
2023/02/15 04:43:20;;;;;;;31.73;18.13;;;;;;;1.16;93.20;101917.38;5052892;28;20021;-66
2023/02/15 04:45:50;;;;;;;29.73;18.33;;;;;;;1.09;93.84;101913.31;5053391;28;20100;-65
2023/02/15 04:48:16;;;;;;;30.80;17.80;;;;;;;1.18;94.21;101937.84;5053534;28;20025;-71
2023/02/15 04:50:44;;;;;;;31.97;17.47;;;;;;;0.98;93.37;101916.44;5053394;28;20407;-70
2023/02/15 04:53:09;;;;;;;29.70;17.70;;;;;;;0.48;93.72;101820.06;5053700;28;20497;-67
2023/02/15 04:55:35;;;;;;;33.07;18.27;;;;;;;1.12;92.37;101933.97;5053939;28;20053;-64
2023/02/15 04:58:00;;;;;;;35.23;19.20;;;;;;;1.06;91.88;101918.09;5052962;28;20035;-68
2023/02/15 05:00:27;;;;;;;33.47;19.43;;;;;;;1.14;92.02;101939.19;5035327;28;20029;-64
2023/02/15 05:02:52;;;;;;;32.97;19.37;;;;;;;0.99;93.96;101946.22;5053317;28;20039;-66
2023/02/15 05:05:18;;;;;;;39.30;21.30;;;;;;;0.78;96.53;101950.94;5053803;28;20029;-66
2023/02/15 05:07:43;;;;;;;38.30;21.23;;;;;;;0.82;96.87;101949.59;5053114;28;20035;-67
2023/02/15 05:10:09;;;;;;;36.83;20.90;;;;;;;0.57;96.54;101923.38;5053515;28;20028;-68
2023/02/15 05:12:34;;;;;;;39.70;21.37;;;;;;;0.69;96.14;101936.44;5052570;28;20055;-67
2023/02/15 05:15:00;;;;;;;35.13;19.97;;;;;;;0.91;95.90;101972.50;5053162;28;20021;-68
2023/02/15 05:17:25;;;;;;;32.57;18.10;;;;;;;0.54;97.78;101964.63;5053410;28;20056;-70
2023/02/15 05:19:50;;;;;;;37.10;20.43;;;;;;;0.22;100.00;101979.13;5052935;28;20044;-67
2023/02/15 05:22:16;;;;;;;31.27;19.20;;;;;;;0.27;100.00;101999.16;5053094;28;20102;-67
2023/02/15 05:30:11;;;;;;;40.67;21.20;;;;;;;0.35;100.00;101997.44;5052684;28;20099;-67
2023/02/15 05:32:38;;;;;;;37.97;22.33;;;;;;;0.34;100.00;101995.63;5053044;28;20028;-65
2023/02/15 05:35:05;;;;;;;37.10;21.23;;;;;;;0.30;100.00;101969.03;5052775;28;20028;-64
2023/02/15 05:37:30;;;;;;;42.03;21.83;;;;;;;0.57;100.00;102004.72;5052840;28;20074;-67
2023/02/15 05:39:56;;;;;;;38.87;19.70;;;;;;;0.34;100.00;101957.53;5052257;28;20041;-68
2023/02/15 05:42:21;;;;;;;39.23;20.30;;;;;;;0.60;100.00;102005.91;5052714;28;20030;-67
2023/02/15 05:44:46;;;;;;;42.40;20.43;;;;;;;0.67;100.00;102004.88;5000763;28;20440;-64
2023/02/15 05:47:12;;;;;;;39.67;20.63;;;;;;;0.70;100.00;102001.75;5052833;28;20583;-65
2023/02/15 05:49:37;;;;;;;37.23;21.30;;;;;;;0.47;100.00;101957.13;5052546;28;20083;-64
2023/02/15 05:52:03;;;;;;;40.73;20.97;;;;;;;0.80;100.00;102004.50;5052614;28;20024;-66
2023/02/15 05:54:29;;;;;;;41.57;22.70;;;;;;;0.52;100.00;101998.25;5051276;28;20091;-64
2023/02/15 05:56:55;;;;;;;46.97;28.63;;;;;;;0.43;100.00;102004.19;5052545;28;20021;-69
2023/02/15 05:59:21;;;;;;;46.17;23.53;;;;;;;0.61;100.00;102019.50;5052294;28;20021;-67
2023/02/15 06:01:46;;;;;;;38.70;24.20;;;;;;;0.64;100.00;102017.31;5052411;28;20020;-70
2023/02/15 06:04:12;;;;;;;38.13;22.47;;;;;;;0.69;100.00;102008.50;5052383;28;20020;-66
2023/02/15 06:06:38;;;;;;;34.43;21.90;;;;;;;0.61;100.00;102010.25;5034091;28;20017;-66
2023/02/15 06:09:03;;;;;;;35.47;20.07;;;;;;;0.70;100.00;102010.28;5052180;28;20836;-64
2023/02/15 06:11:28;;;;;;;34.53;19.93;;;;;;;0.78;100.00;102021.22;5052187;28;20024;-68
2023/02/15 06:13:54;;;;;;;38.50;22.20;;;;;;;0.84;100.00;102024.41;5052417;28;20439;-65
2023/02/15 06:16:20;;;;;;;38.40;21.70;;;;;;;0.93;100.00;102032.06;5052140;28;20368;-65
2023/02/15 06:18:45;;;;;;;38.97;23.57;;;;;;;0.93;100.00;102022.78;5051943;28;20029;-68
2023/02/15 06:21:11;;;;;;;54.67;30.97;;;;;;;0.83;100.00;102035.31;5051606;28;20080;-65
2023/02/15 06:23:36;;;;;;;41.70;27.47;;;;;;;0.66;98.50;102028.53;5051803;28;20810;-65
2023/02/15 06:26:01;;;;;;;55.00;33.27;;;;;;;0.30;98.74;101998.63;5051041;28;20124;-64
2023/02/15 06:28:27;;;;;;;37.87;22.17;;;;;;;0.09;100.00;102012.53;5051755;28;20124;-69
2023/02/15 06:30:52;;;;;;;33.73;19.93;;;;;;;0.31;99.85;102044.50;5051500;28;20427;-65
2023/02/15 06:33:18;;;;;;;35.90;21.03;;;;;;;0.30;99.85;102046.88;5051632;28;20511;-69
2023/02/15 06:36:03;;;;;;;34.43;19.43;;;;;;;0.31;99.75;102056.28;5051715;28;20024;-65
2023/02/15 06:38:29;;;;;;;34.43;20.83;;;;;;;0.25;100.00;102051.47;5028989;28;20048;-67
2023/02/15 06:40:55;;;;;;;37.67;23.00;;;;;;;0.23;100.00;102040.25;5029094;28;20463;-68
2023/02/15 06:43:20;;;;;;;33.53;20.67;;;;;;;0.21;100.00;102040.81;5029199;28;20033;-66
2023/02/15 06:45:47;;;;;;;32.03;19.50;;;;;;;0.20;100.00;102041.56;5028778;28;20029;-63
2023/02/15 06:48:12;;;;;;;32.93;19.80;;;;;;;0.31;100.00;102047.03;5012507;28;20107;-68
2023/02/15 06:50:38;;;;;;;33.07;19.97;;;;;;;0.40;100.00;102044.53;5028488;28;20029;-65
2023/02/15 06:53:03;;;;;;;34.70;21.20;;;;;;;0.45;100.00;102048.44;5029052;28;20038;-67
2023/02/15 06:55:29;;;;;;;41.27;23.63;;;;;;;0.44;100.00;102045.75;5028846;28;20025;-68
2023/02/15 06:57:55;;;;;;;42.63;23.50;;;;;;;0.50;100.00;102038.78;5029009;28;20056;-69
2023/02/15 07:00:21;;;;;;;36.23;22.43;;;;;;;0.53;99.58;102033.97;5028707;28;20743;-69
2023/02/15 07:02:47;;;;;;;40.07;22.50;;;;;;;0.61;100.00;102044.94;5012191;28;20038;-66
2023/02/15 07:05:12;;;;;;;40.47;22.60;;;;;;;0.51;99.49;102019.31;5027866;28;20029;-67
2023/02/15 07:07:38;;;;;;;38.70;22.83;;;;;;;0.58;100.00;102062.41;5028905;28;20084;-69
2023/02/15 07:10:04;;;;;;;49.40;25.10;;;;;;;0.40;100.00;102020.75;5045431;28;20120;-67
2023/02/15 07:12:44;;;;;;;45.47;27.07;;;;;;;0.63;100.00;102064.66;5050645;28;20029;-66
2023/02/15 07:15:20;;;;;;;42.43;23.67;;;;;;;0.67;100.00;102053.19;5050038;28;20017;-68
2023/02/15 07:17:46;;;;;;;37.30;22.40;;;;;;;0.80;100.00;102056.22;5014887;28;20056;-69
2023/02/15 07:20:21;;;;;;;36.33;21.80;;;;;;;0.94;100.00;102056.75;5050624;28;20447;-69
2023/02/15 07:22:47;;;;;;;37.80;20.27;;;;;;;0.95;99.69;102050.91;5049759;28;20099;-68
2023/02/15 07:25:13;;;;;;;38.87;22.57;;;;;;;1.06;99.31;102052.91;5038523;28;20027;-68
2023/02/15 07:27:39;;;;;;;42.07;23.20;;;;;;;1.25;99.02;102052.19;5050202;28;20020;-66
2023/02/15 07:30:06;;;;;;;42.80;23.30;;;;;;;1.38;98.04;102057.75;5050404;28;20036;-70
2023/02/15 07:32:32;;;;;;;42.20;23.03;;;;;;;1.52;97.35;102058.22;5031589;28;20471;-67
2023/02/15 07:34:59;;;;;;;37.87;22.80;;;;;;;1.58;97.11;102058.81;5039306;28;20514;-72
2023/02/15 07:37:26;;;;;;;50.00;27.47;;;;;;;1.61;97.24;102059.16;5034001;28;20057;-64
2023/02/15 07:39:51;;;;;;;38.97;24.77;;;;;;;1.76;97.35;102055.53;5039002;28;20530;-68
2023/02/15 07:42:19;;;;;;;39.40;24.03;;;;;;;1.91;96.82;102060.34;5035058;28;20040;-69
2023/02/15 07:44:45;;;;;;;46.53;26.53;;;;;;;1.91;95.83;102053.59;5039061;28;20031;-67
2023/02/15 07:47:11;;;;;;;42.30;24.40;;;;;;;2.02;95.32;102061.38;5036275;28;20108;-69
2023/02/15 07:49:36;;;;;;;41.43;23.97;;;;;;;1.96;nan;102045.50;5050785;28;20056;-64
2023/02/15 07:52:02;;;;;;;36.50;21.50;;;;;;;2.09;95.69;102057.03;5047514;28;20124;-63
2023/02/15 07:54:28;;;;;;;35.03;21.00;;;;;;;2.18;95.50;102061.22;5030799;28;20036;-69
2023/02/15 07:56:54;;;;;;;34.37;21.53;;;;;;;1.98;95.50;102011.81;5029994;28;20021;-66
2023/02/15 07:59:19;;;;;;;30.77;20.03;;;;;;;2.05;94.56;102021.81;5037662;28;20471;-67
2023/02/15 08:01:45;;;;;;;32.83;20.67;;;;;;;2.32;94.68;102059.97;5048393;28;20032;-64
2023/02/15 08:04:10;;;;;;;34.17;21.33;;;;;;;2.01;96.00;102018.84;5012661;28;20034;-71
2023/02/15 08:06:37;;;;;;;31.77;19.37;;;;;;;2.32;96.10;102054.88;5031692;28;20025;-64
2023/02/15 08:09:07;;;;;;;34.73;21.43;;;;;;;1.95;96.13;101975.84;5050150;28;20483;-68
2023/02/15 08:11:39;;;;;;;;;;;;;;;2.47;95.64;102047.81;5050521;28;20383;-64
2023/02/15 08:14:16;;;;;;;31.75;19.08;;;;;;;2.49;96.11;102036.09;5049589;28;19975;-68
2023/02/15 08:16:48;;;;;;;32.47;20.52;;;;;;;2.66;95.84;102047.91;5035990;28;20103;-65
2023/02/15 08:19:17;;;;;;;34.35;20.67;;;;;;;2.72;95.45;102036.63;5049909;28;20394;-66
2023/02/15 08:21:46;;;;;;;35.80;21.23;;;;;;;2.79;95.77;102034.66;5049881;28;20041;-69
2023/02/15 08:24:14;;;;;;;31.30;20.33;;;;;;;2.98;95.12;102042.34;5036161;28;20029;-66
2023/02/15 08:26:41;;;;;;;34.67;21.43;;;;;;;2.99;94.75;102033.94;5036182;28;20445;-67
2023/02/15 08:29:07;;;;;;;36.97;19.63;;;;;;;3.12;94.60;102047.09;5043374;28;20100;-65
2023/02/15 08:31:34;;;;;;;35.22;21.70;;;;;;;3.16;94.38;102038.06;5029978;28;20121;-68
2023/02/15 08:33:59;;;;;;;34.03;20.75;;;;;;;3.20;93.91;102040.13;5017379;28;20390;-67
2023/02/15 08:36:28;;;;;;;33.10;20.65;;;;;;;3.33;93.78;102037.97;5050214;28;20025;-67
2023/02/15 08:38:57;;;;;;;29.30;20.02;;;;;;;3.44;93.51;102036.41;5040822;28;20080;-69
2023/02/15 08:41:25;;;;;;;34.23;21.10;;;;;;;3.58;93.38;102036.72;5030483;28;20026;-64
2023/02/15 08:43:57;;;;;;;34.33;21.17;;;;;;;3.30;92.32;101961.13;5022725;28;20427;-68
2023/02/15 08:46:24;;;;;;;33.75;20.10;;;;;;;3.81;91.76;102031.13;5010446;28;20708;-64
2023/02/15 08:48:50;;;;;;;29.58;19.65;;;;;;;3.88;90.02;102026.72;5010918;28;20033;-67
2023/02/15 08:51:21;;;;;;;29.48;19.27;;;;;;;3.99;89.88;102034.44;5010846;28;20030;-67
2023/02/15 08:53:49;;;;;;;32.22;20.10;;;;;;;4.15;89.14;102037.59;5010798;28;20076;-67
2023/02/15 08:56:15;;;;;;;30.13;19.63;;;;;;;4.21;89.32;102042.34;5010534;28;20026;-64
2023/02/15 08:58:41;;;;;;;33.25;22.52;;;;;;;4.46;87.62;102047.03;5010356;28;20070;-67
2023/02/15 09:01:13;;;;;;;31.17;20.23;;;;;;;4.61;85.00;102030.47;5010352;28;20113;-67
2023/02/15 09:03:39;;;;;;;25.17;16.40;;;;;;;4.85;82.05;102036.78;5010460;28;20018;-68
2023/02/15 09:06:05;;;;;;;30.52;17.73;;;;;;;4.89;80.23;102016.59;5010306;28;20034;-64
2023/02/15 09:08:31;;;;;;;24.08;14.40;;;;;;;5.10;77.92;102027.75;5010587;28;20226;-66
2023/02/15 09:11:24;;;;;;;24.35;14.25;;;;;;;5.32;74.71;102022.72;5010523;28;20542;-65
2023/02/15 09:14:02;;;;;;;22.13;13.25;;;;;;;5.38;73.33;102020.69;5010415;28;20072;-67
2023/02/15 09:16:30;;;;;;;21.98;12.70;;;;;;;5.54;72.09;102024.53;5010365;28;20049;-68
2023/02/15 09:18:57;;;;;;;21.38;13.52;;;;;;;5.56;72.83;102012.72;5010356;28;20087;-64
2023/02/15 09:21:24;;;;;;;21.23;14.10;;;;;;;5.70;72.16;102012.19;4995221;28;20534;-69
2023/02/15 09:23:52;;;;;;;21.05;13.57;;;;;;;5.82;72.19;102020.88;5030256;28;20427;-64
2023/02/15 09:26:42;;;;;;;23.55;13.55;;;;;;;5.93;72.46;102024.34;4993267;28;20481;-66
2023/02/15 09:29:09;;;;;;;24.60;14.30;;;;;;;6.01;71.88;102022.41;5010010;28;20562;-65
2023/02/15 09:31:41;;;;;;;24.80;13.20;;;;;;;6.13;71.20;102018.25;5010602;28;20033;-66
2023/02/15 09:34:06;;;;;;;29.23;13.68;;;;;;;6.24;70.89;102008.88;5010893;28;20057;-68
2023/02/15 09:36:34;;;;;;;22.63;13.38;;;;;;;6.37;71.41;102017.50;5011130;28;20068;-66
2023/02/15 09:39:07;;;;;;;21.38;13.15;;;;;;;6.45;70.51;102021.59;5011174;28;20045;-67
2023/02/15 09:41:50;;;;;;;21.13;12.45;;;;;;;6.55;69.14;102029.22;5010779;28;20046;-65
2023/02/15 09:44:34;;;;;;;18.75;11.80;;;;;;;6.68;68.29;102018.25;5010197;28;20048;-68
2023/02/15 09:47:18;;;;;;;21.00;12.15;;;;;;;6.69;67.70;102019.13;5008107;28;20131;-69
2023/02/15 09:50:03;;;;;;;21.90;12.63;;;;;;;6.70;67.00;102018.38;5008851;28;20076;-67
2023/02/15 09:52:43;;;;;;;22.55;13.98;;;;;;;6.77;67.88;102016.38;5011504;28;20046;-70
2023/02/15 09:55:27;;;;;;;23.13;13.82;;;;;;;6.88;66.51;102019.78;5010511;28;20030;-66
2023/02/15 09:58:10;;;;;;;22.52;13.48;;;;;;;6.92;66.54;101983.28;5023967;28;20113;-67
2023/02/15 10:01:19;;;;;;;21.73;13.20;;;;;;;7.23;66.44;102008.75;5033089;28;20068;-64
2023/02/15 10:03:56;;;;;;;18.15;12.23;;;;;;;7.29;65.38;101995.47;4969958;28;20038;-67
2023/02/15 10:06:41;;;;;;;20.02;12.82;;;;;;;7.34;66.51;101986.44;4971393;28;20374;-66
2023/02/15 10:09:33;;;;;;;18.42;12.10;;;;;;;7.22;65.98;101953.00;4971368;28;20049;-68
2023/02/15 10:12:00;;;;;;;21.95;12.18;;;;;;;7.56;65.01;101986.34;4970129;28;20385;-68
2023/02/15 10:14:47;;;;;;;18.75;13.57;;;;;;;7.68;64.23;101978.63;4970276;28;20046;-65
2023/02/15 10:17:28;;;;;;;20.20;13.25;;;;;;;7.88;64.48;101979.19;4944814;28;20114;-68
2023/02/15 10:20:18;;;;;;;21.33;13.15;;;;;;;7.97;63.12;101966.97;4970074;28;20035;-64
2023/02/15 10:23:13;;;;;;;17.48;11.40;;;;;;;8.00;61.48;101954.34;4973808;28;20096;-68
2023/02/15 10:25:50;;;;;;;17.88;11.65;;;;;;;8.21;63.36;101964.34;4978194;28;20038;-66
2023/02/15 10:28:18;;;;;;;17.70;11.52;;;;;;;8.18;60.59;101959.88;4964908;28;20034;-67
2023/02/15 10:30:45;;;;;;;17.63;11.52;;;;;;;7.88;61.82;101913.22;4980467;28;20030;-67
2023/02/15 10:33:19;;;;;;;18.52;11.27;;;;;;;8.19;62.55;101953.97;4979151;28;20567;-67
2023/02/15 10:36:08;;;;;;;15.65;10.75;;;;;;;8.30;60.78;101951.25;4968796;28;20569;-68
2023/02/15 10:38:42;;;;;;;16.70;11.57;;;;;;;8.49;60.36;101949.22;4932245;29;20130;-67
2023/02/15 10:41:15;;;;;;;25.38;19.20;;;;;;;8.55;59.70;101941.91;4940786;28;20058;-68
2023/02/15 10:43:59;;;;;;;17.48;12.10;;;;;;;8.60;58.52;101933.59;4976277;28;20039;-69
2023/02/15 10:46:52;;;;;;;17.48;11.23;;;;;;;8.53;58.66;101938.31;4979576;28;20513;-66
2023/02/15 10:50:03;;;;;;;17.90;11.75;;;;;;;8.60;59.46;101933.59;4961755;28;20405;-68
2023/02/15 10:52:37;;;;;;;19.10;12.52;;;;;;;8.38;59.63;101885.78;4969460;28;20140;-70
2023/02/15 10:55:15;;;;;;;17.83;11.82;;;;;;;8.54;59.02;101911.81;4969581;28;20055;-68
2023/02/15 10:58:06;;;;;;;18.88;12.82;;;;;;;8.81;58.68;101932.50;4969535;28;20042;-70
2023/02/15 11:01:03;;;;;;;18.10;11.60;;;;;;;8.83;57.57;101922.31;4969135;28;20031;-68
2023/02/15 11:04:04;;;;;;;18.50;12.15;;;;;;;8.70;57.42;101918.91;4968820;28;20074;-68
2023/02/15 11:06:32;;;;;;;19.63;12.45;;;;;;;8.98;58.22;101920.75;4969085;28;20041;-70
2023/02/15 11:09:21;;;;;;;20.35;13.02;;;;;;;9.24;57.88;101903.53;4968763;28;20446;-68
2023/02/15 11:11:53;;;;;;;18.90;12.52;;;;;;;9.28;56.66;101902.06;4966664;28;20050;-69
2023/02/15 11:14:54;;;;;;;18.52;12.68;;;;;;;9.45;56.67;101914.34;4966793;28;20034;-68
2023/02/15 11:17:57;;;;;;;16.30;12.00;;;;;;;9.50;57.95;101907.81;4988273;28;20483;-69
2023/02/15 11:20:45;;;;;;;18.10;12.25;;;;;;;9.31;55.88;101903.16;4934045;29;20032;-70
2023/02/15 11:23:18;;;;;;;18.27;11.38;;;;;;;8.83;56.66;101894.84;4932462;28;20177;-72
2023/02/15 11:26:03;;;;;;;17.05;11.40;;;;;;;8.86;57.07;101895.06;4914461;29;20043;-69
2023/02/15 11:28:42;;;;;;;16.40;10.85;;;;;;;8.80;57.06;101899.81;4930860;28;20496;-72
2023/02/15 11:31:17;;;;;;;17.85;12.07;;;;;;;8.73;57.61;101880.50;4931927;28;20403;-71
2023/02/15 11:33:47;;;;;;;17.15;11.23;;;;;;;8.69;57.66;101877.59;4932440;28;20036;-70
2023/02/15 11:36:43;;;;;;;16.23;10.95;;;;;;;8.84;58.02;101893.19;4930454;28;20406;-70
2023/02/15 11:39:15;;;;;;;15.48;10.68;;;;;;;8.83;57.03;101879.41;4930771;29;20031;-70
2023/02/15 11:41:49;;;;;;;29.52;13.50;;;;;;;8.63;57.88;101854.03;4930762;29;20028;-69
2023/02/15 11:44:23;;;;;;;15.00;10.98;;;;;;;8.95;56.39;101888.72;4929130;29;20156;-70
2023/02/15 11:46:49;;;;;;;17.63;10.30;;;;;;;8.69;56.13;101839.88;4930225;29;20027;-68
2023/02/15 11:49:30;;;;;;;17.58;10.35;;;;;;;8.82;57.19;101877.66;4929909;29;20059;-66
2023/02/15 11:51:57;;;;;;;17.77;11.95;;;;;;;8.97;56.77;101885.50;4928935;29;20059;-68
2023/02/15 11:54:35;;;;;;;18.40;12.32;;;;;;;8.89;56.58;101828.31;4927891;29;20483;-66
2023/02/15 11:57:26;;;;;;;16.50;12.07;;;;;;;9.48;55.76;101877.56;4916052;29;20074;-66
2023/02/15 12:00:49;;;;;;;20.15;12.20;;;;;;;9.58;56.89;101867.03;4924454;29;20067;-68
2023/02/15 12:03:36;;;;;;;19.42;12.85;;;;;;;9.67;54.99;101865.06;4886421;29;20116;-68